createdAt,value
2023-08-05T00:00:01.737Z,14.86
2023-08-05T00:02:29.750Z,14.75
2023-08-05T00:04:59.240Z,14.70
2023-08-05T00:07:27.078Z,14.64
2023-08-05T00:09:55.281Z,14.63
2023-08-05T00:12:23.088Z,14.41
2023-08-05T00:14:51.062Z,14.36
2023-08-05T00:17:18.950Z,14.45
2023-08-05T00:19:47.164Z,14.45
2023-08-05T00:22:16.393Z,14.40
2023-08-05T00:24:44.286Z,14.34
2023-08-05T00:27:12.070Z,14.27
2023-08-05T00:29:40.084Z,14.24
2023-08-05T00:32:08.509Z,14.19
2023-08-05T00:34:36.806Z,14.14
2023-08-05T00:37:04.812Z,14.07
2023-08-05T00:39:34.037Z,14.04
2023-08-05T00:42:02.083Z,13.99
2023-08-05T00:44:30.432Z,13.66
2023-08-05T00:46:59.119Z,13.83
2023-08-05T00:49:27.299Z,13.76
2023-08-05T00:51:56.882Z,13.66
2023-08-05T00:54:24.772Z,13.62
2023-08-05T00:56:55.150Z,13.60
2023-08-05T00:59:22.886Z,13.54
2023-08-05T01:01:51.015Z,13.49
2023-08-05T01:04:19.075Z,13.43
2023-08-05T01:06:47.761Z,13.34
2023-08-05T01:09:16.220Z,13.35
2023-08-05T01:11:44.175Z,13.28
2023-08-05T01:14:13.281Z,13.19
2023-08-05T01:16:41.349Z,13.13
2023-08-05T01:19:15.037Z,12.77
2023-08-05T01:21:47.644Z,13.04
2023-08-05T01:24:22.871Z,12.98
2023-08-05T01:26:53.706Z,12.81
2023-08-05T01:29:21.492Z,12.89
2023-08-05T01:31:52.022Z,12.85
2023-08-05T01:34:20.926Z,12.84
2023-08-05T01:36:48.907Z,12.80
2023-08-05T01:39:17.117Z,12.82
2023-08-05T01:41:45.106Z,12.77
2023-08-05T01:44:14.404Z,12.75
2023-08-05T01:46:42.486Z,12.71
2023-08-05T01:49:10.296Z,12.69
2023-08-05T01:51:38.210Z,12.63
2023-08-05T01:54:06.026Z,12.64
2023-08-05T01:56:33.857Z,12.71
2023-08-05T01:59:01.926Z,12.65
2023-08-05T02:01:43.254Z,12.57
2023-08-05T02:04:11.458Z,12.51
2023-08-05T02:06:39.532Z,12.60
2023-08-05T02:09:07.806Z,12.61
2023-08-05T02:11:36.135Z,12.60
2023-08-05T02:14:04.784Z,12.57
2023-08-05T02:16:34.614Z,12.50
2023-08-05T02:19:04.210Z,12.49
2023-08-05T02:21:33.438Z,12.49
2023-08-05T02:24:01.167Z,12.50
2023-08-05T02:26:29.332Z,12.43
2023-08-05T02:28:57.186Z,12.46
2023-08-05T02:31:24.991Z,12.47
2023-08-05T02:33:53.002Z,12.39
2023-08-05T02:36:22.125Z,12.30
2023-08-05T02:38:50.047Z,12.28
2023-08-05T02:41:17.855Z,12.25
2023-08-05T02:43:45.696Z,12.22
2023-08-05T02:46:13.905Z,12.23
2023-08-05T02:48:41.733Z,12.23
2023-08-05T02:51:09.820Z,12.23
2023-08-05T02:53:39.567Z,12.15
2023-08-05T02:56:07.430Z,11.86
2023-08-05T02:58:35.396Z,12.07
2023-08-05T03:01:08.288Z,12.00
2023-08-05T03:03:36.334Z,11.99
2023-08-05T03:06:04.610Z,11.98
2023-08-05T03:08:33.054Z,12.03
2023-08-05T03:11:03.041Z,12.01
2023-08-05T03:13:33.594Z,11.90
2023-08-05T03:16:11.612Z,12.17
2023-08-05T03:18:44.977Z,12.15
2023-08-05T03:21:12.926Z,12.01
2023-08-05T03:23:41.536Z,11.63
2023-08-05T03:26:11.870Z,11.80
2023-08-05T03:28:39.904Z,11.78
2023-08-05T03:31:10.180Z,11.49
2023-08-05T03:33:38.275Z,11.54
2023-08-05T03:36:07.779Z,11.82
2023-08-05T03:38:35.871Z,11.74
2023-08-05T03:41:04.601Z,11.77
2023-08-05T03:43:34.870Z,11.85
2023-08-05T03:46:04.335Z,11.82
2023-08-05T03:48:32.574Z,11.74
2023-08-05T03:51:00.592Z,11.65
2023-08-05T03:53:29.054Z,11.76
2023-08-05T03:55:56.822Z,11.64
2023-08-05T03:58:24.923Z,11.60
2023-08-05T04:00:55.436Z,11.58
2023-08-05T04:03:24.238Z,11.57
2023-08-05T04:05:52.066Z,11.31
2023-08-05T04:08:21.079Z,11.67
2023-08-05T04:10:49.324Z,11.45
2023-08-05T04:13:18.738Z,11.61
2023-08-05T04:15:48.311Z,11.68
2023-08-05T04:18:17.775Z,11.62
2023-08-05T04:20:47.319Z,11.64
2023-08-05T04:23:17.412Z,11.71
2023-08-05T04:25:47.149Z,11.65
2023-08-05T04:28:15.097Z,11.62
2023-08-05T04:30:43.412Z,11.62
2023-08-05T04:33:11.963Z,11.65
2023-08-05T04:35:46.153Z,11.67
2023-08-05T04:38:13.956Z,11.68
2023-08-05T04:40:41.798Z,11.67
2023-08-05T04:43:09.774Z,11.78
2023-08-05T04:45:37.851Z,11.79
2023-08-05T04:48:08.232Z,11.77
2023-08-05T04:50:38.494Z,11.76
2023-08-05T04:53:08.588Z,11.79
2023-08-05T04:55:36.659Z,11.90
2023-08-05T04:58:05.104Z,11.64
2023-08-05T05:00:33.250Z,11.88
2023-08-05T05:03:01.148Z,11.83
2023-08-05T05:05:29.042Z,11.85
2023-08-05T05:07:57.089Z,11.95
2023-08-05T05:10:26.227Z,12.02
2023-08-05T05:12:53.981Z,12.01
2023-08-05T05:15:23.269Z,12.04
2023-08-05T05:17:51.776Z,12.15
2023-08-05T05:20:19.747Z,12.17
2023-08-05T05:22:47.524Z,12.20
2023-08-05T05:25:15.290Z,12.25
2023-08-05T05:27:44.683Z,12.27
2023-08-05T05:30:13.090Z,12.24
2023-08-05T05:32:40.856Z,12.36
2023-08-05T05:35:09.670Z,12.39
2023-08-05T05:37:37.473Z,12.46
2023-08-05T05:40:06.322Z,12.53
2023-08-05T05:42:35.011Z,12.61
2023-08-05T05:45:04.242Z,12.67
2023-08-05T05:47:32.436Z,12.75
2023-08-05T05:50:00.313Z,12.93
2023-08-05T05:52:28.037Z,12.95
2023-08-05T05:54:56.142Z,13.05
2023-08-05T05:57:24.419Z,13.01
2023-08-05T05:59:52.241Z,13.23
2023-08-05T06:02:21.499Z,13.40
2023-08-05T06:04:49.732Z,13.52
2023-08-05T06:07:17.580Z,13.66
2023-08-05T06:09:45.477Z,13.72
2023-08-05T06:12:13.253Z,13.86
2023-08-05T06:14:41.406Z,14.05
2023-08-05T06:17:09.308Z,14.17
2023-08-05T06:19:38.512Z,14.32
2023-08-05T06:22:07.224Z,14.38
2023-08-05T06:24:35.001Z,14.49
2023-08-05T06:27:02.929Z,14.54
2023-08-05T06:29:30.717Z,14.65
2023-08-05T06:31:58.819Z,14.64
2023-08-05T06:34:26.616Z,14.69
2023-08-05T06:36:55.734Z,14.69
2023-08-05T06:39:23.868Z,14.78
2023-08-05T06:41:51.948Z,14.85
2023-08-05T06:44:23.420Z,14.91
2023-08-05T06:46:51.473Z,14.96
2023-08-05T06:49:19.267Z,14.93
2023-08-05T06:51:48.968Z,15.04
2023-08-05T06:54:18.892Z,15.17
2023-08-05T06:56:47.075Z,15.18
2023-08-05T06:59:15.185Z,15.30
2023-08-05T07:01:43.014Z,15.39
2023-08-05T07:04:11.088Z,15.57
2023-08-05T07:06:39.552Z,14.86
2023-08-05T07:09:07.442Z,15.95
2023-08-05T07:11:37.195Z,16.24
2023-08-05T07:14:04.857Z,16.40
2023-08-05T07:16:32.850Z,16.70
2023-08-05T07:19:00.563Z,17.06
2023-08-05T07:21:28.578Z,17.25
2023-08-05T07:23:56.266Z,17.55
2023-08-05T07:26:23.935Z,18.02
2023-08-05T07:28:53.214Z,18.21
2023-08-05T07:31:21.069Z,18.61
2023-08-05T07:33:48.921Z,19.11
2023-08-05T07:36:17.854Z,19.56
2023-08-05T07:38:47.814Z,20.84
2023-08-05T07:41:17.276Z,20.94
2023-08-05T07:43:45.248Z,21.01
2023-08-05T07:46:15.002Z,20.61
2023-08-05T07:48:43.681Z,21.05
2023-08-05T07:51:11.610Z,21.14
2023-08-05T07:53:39.378Z,21.06
2023-08-05T07:56:11.208Z,21.09
2023-08-05T07:58:41.824Z,21.41
2023-08-05T08:01:09.883Z,21.69
2023-08-05T08:03:38.968Z,21.42
2023-08-05T08:06:07.105Z,21.66
2023-08-05T08:08:34.813Z,21.02
2023-08-05T08:11:02.540Z,20.73
2023-08-05T08:13:30.465Z,20.68
2023-08-05T08:15:58.160Z,20.68
2023-08-05T08:18:25.863Z,20.54
2023-08-05T08:20:55.377Z,20.02
2023-08-05T08:23:24.041Z,19.95
2023-08-05T08:25:52.020Z,20.03
2023-08-05T08:28:19.694Z,19.96
2023-08-05T08:30:55.888Z,19.58
2023-08-05T08:33:24.380Z,19.82
2023-08-05T08:35:52.727Z,19.83
2023-08-05T08:38:23.763Z,19.80
2023-08-05T08:40:53.309Z,20.12
2023-08-05T08:43:21.784Z,20.26
2023-08-05T08:45:53.577Z,20.14
2023-08-05T08:48:25.035Z,20.31
2023-08-05T08:50:54.791Z,19.97
2023-08-05T08:53:23.952Z,19.70
2023-08-05T08:55:51.856Z,19.57
2023-08-05T08:58:19.701Z,19.81
2023-08-05T09:00:48.525Z,20.08
2023-08-05T09:03:17.136Z,20.54
2023-08-05T09:05:51.570Z,20.49
2023-08-05T09:08:19.410Z,20.63
2023-08-05T09:10:48.518Z,20.78
2023-08-05T09:13:17.997Z,20.88
2023-08-05T09:15:48.017Z,20.87
2023-08-05T09:18:15.807Z,20.98
2023-08-05T09:20:43.803Z,20.96
2023-08-05T09:23:12.955Z,21.02
2023-08-05T09:25:42.671Z,21.08
2023-08-05T09:28:12.094Z,20.98
2023-08-05T09:30:39.947Z,21.32
2023-08-05T09:33:08.064Z,21.53
2023-08-05T09:35:35.774Z,21.54
2023-08-05T09:38:04.529Z,21.51
2023-08-05T09:40:33.938Z,21.64
2023-08-05T09:43:04.058Z,21.95
2023-08-05T09:45:34.708Z,21.69
2023-08-05T09:48:08.128Z,21.81
2023-08-05T09:50:39.109Z,22.20
2023-08-05T09:53:08.571Z,22.01
2023-08-05T09:55:36.546Z,22.24
2023-08-05T09:58:09.316Z,22.41
2023-08-05T10:00:41.570Z,22.51
2023-08-05T10:03:15.596Z,22.72
2023-08-05T10:05:45.249Z,22.68
2023-08-05T10:08:15.084Z,22.35
2023-08-05T10:10:44.237Z,22.38
2023-08-05T10:13:15.793Z,22.92
2023-08-05T10:15:49.228Z,22.66
2023-08-05T10:18:18.087Z,22.56
2023-08-05T10:20:51.976Z,22.23
2023-08-05T10:23:20.292Z,22.29
2023-08-05T10:25:49.244Z,22.51
2023-08-05T10:28:41.767Z,22.19
2023-08-05T10:34:13.503Z,22.52
2023-08-05T10:36:45.635Z,22.21
2023-08-05T10:39:45.312Z,21.77
2023-08-05T10:42:33.235Z,21.43
2023-08-05T10:45:01.670Z,21.84
2023-08-05T10:47:29.709Z,22.41
2023-08-05T10:50:01.503Z,22.54
2023-08-05T10:52:30.797Z,22.88
2023-08-05T10:54:59.569Z,22.16
2023-08-05T10:57:45.806Z,21.94
2023-08-05T11:00:20.391Z,22.12
2023-08-05T11:02:50.976Z,22.24
2023-08-05T11:05:25.365Z,22.09
2023-08-05T11:07:55.720Z,21.94
2023-08-05T11:10:23.426Z,22.41
2023-08-05T11:12:56.391Z,22.28
2023-08-05T11:15:24.035Z,22.49
2023-08-05T11:17:54.846Z,23.00
2023-08-05T11:20:32.434Z,23.45
2023-08-05T11:23:00.957Z,23.42
2023-08-05T11:25:28.989Z,23.42
2023-08-05T11:27:56.958Z,23.83
2023-08-05T11:30:24.893Z,23.77
2023-08-05T11:32:53.951Z,22.91
2023-08-05T11:35:22.253Z,23.28
2023-08-05T11:37:51.340Z,23.63
2023-08-05T11:40:19.672Z,24.12
2023-08-05T11:42:47.983Z,24.34
2023-08-05T11:45:17.669Z,24.05
2023-08-05T11:47:45.553Z,23.08
2023-08-05T11:50:14.674Z,22.95
2023-08-05T11:52:42.848Z,22.73
2023-08-05T11:55:12.310Z,22.50
2023-08-05T11:57:40.223Z,22.48
2023-08-05T12:00:11.024Z,23.23
2023-08-05T12:02:39.943Z,23.16
2023-08-05T12:05:12.221Z,23.17
2023-08-05T12:07:42.445Z,22.71
2023-08-05T12:10:14.093Z,22.52
2023-08-05T12:12:45.949Z,22.31
2023-08-05T12:15:15.116Z,22.51
2023-08-05T12:17:48.167Z,22.42
2023-08-05T12:20:18.839Z,22.78
2023-08-05T12:22:46.607Z,23.36
2023-08-05T12:25:16.420Z,23.60
2023-08-05T12:27:44.443Z,23.15
2023-08-05T12:30:12.892Z,22.70
2023-08-05T12:32:41.016Z,22.78
2023-08-05T12:35:10.607Z,22.81
2023-08-05T12:37:40.954Z,22.64
2023-08-05T12:40:10.804Z,22.45
2023-08-05T12:42:40.076Z,22.51
2023-08-05T12:45:10.523Z,22.62
2023-08-05T12:47:39.827Z,22.70
2023-08-05T12:50:09.403Z,22.32
2023-08-05T12:52:37.535Z,21.64
2023-08-05T12:55:06.261Z,21.77
2023-08-05T12:57:34.357Z,21.77
2023-08-05T13:00:03.836Z,21.66
2023-08-05T13:02:32.115Z,21.70
2023-08-05T13:04:59.975Z,21.45
2023-08-05T13:07:27.719Z,21.33
2023-08-05T13:09:55.709Z,21.17
2023-08-05T13:12:23.408Z,21.09
2023-08-05T13:14:51.292Z,20.92
2023-08-05T13:17:20.258Z,20.40
2023-08-05T13:19:47.893Z,19.30
2023-08-05T13:22:15.564Z,18.45
2023-08-05T13:24:43.864Z,17.96
2023-08-05T13:27:11.674Z,17.65
2023-08-05T13:29:39.373Z,17.63
2023-08-05T13:32:08.139Z,17.73
2023-08-05T13:34:37.433Z,17.98
2023-08-05T13:37:05.702Z,18.18
2023-08-05T13:39:33.598Z,18.38
2023-08-05T13:42:01.992Z,18.19
2023-08-05T13:44:30.042Z,18.78
2023-08-05T13:46:58.141Z,19.04
2023-08-05T13:49:26.857Z,19.14
2023-08-05T13:51:56.341Z,19.87
2023-08-05T13:54:24.342Z,20.34
2023-08-05T13:56:52.105Z,20.83
2023-08-05T13:59:20.036Z,21.36
2023-08-05T14:01:47.963Z,21.63
2023-08-05T14:04:16.077Z,21.77
2023-08-05T14:06:43.775Z,22.01
2023-08-05T14:09:12.929Z,21.90
2023-08-05T14:11:40.918Z,21.74
2023-08-05T14:14:08.602Z,21.54
2023-08-05T14:16:40.354Z,21.45
2023-08-05T14:19:08.506Z,21.44
2023-08-05T14:21:37.043Z,21.30
2023-08-05T14:24:05.019Z,21.59
2023-08-05T14:26:34.043Z,21.63
2023-08-05T14:29:02.002Z,21.96
2023-08-05T14:31:29.754Z,22.08
2023-08-05T14:33:57.747Z,22.22
2023-08-05T14:36:26.502Z,22.19
2023-08-05T14:38:54.227Z,21.94
2023-08-05T14:41:22.722Z,22.39
2023-08-05T14:43:51.747Z,22.66
2023-08-05T14:46:19.777Z,22.47
2023-08-05T14:48:48.227Z,22.57
2023-08-05T14:51:15.886Z,22.51
2023-08-05T14:53:43.735Z,22.45
2023-08-05T14:56:11.509Z,22.65
2023-08-05T14:58:39.415Z,22.87
2023-08-05T15:01:17.575Z,22.84
2023-08-05T15:03:46.784Z,22.77
2023-08-05T15:06:14.712Z,22.52
2023-08-05T15:08:42.528Z,22.07
2023-08-05T15:11:12.687Z,21.90
2023-08-05T15:13:40.779Z,21.81
2023-08-05T15:16:10.112Z,21.70
2023-08-05T15:18:37.802Z,21.77
2023-08-05T15:21:06.048Z,21.92
2023-08-05T15:23:34.566Z,22.29
2023-08-05T15:26:03.947Z,22.55
2023-08-05T15:28:32.290Z,22.86
2023-08-05T15:31:00.118Z,23.16
2023-08-05T15:33:29.260Z,22.83
2023-08-05T15:35:56.949Z,23.18
2023-08-05T15:38:24.742Z,23.65
2023-08-05T15:40:59.173Z,23.83
2023-08-05T15:43:26.901Z,23.75
2023-08-05T15:45:57.938Z,23.33
2023-08-05T15:48:26.104Z,22.91
2023-08-05T15:50:55.509Z,22.82
2023-08-05T15:53:23.214Z,22.96
2023-08-05T15:55:59.818Z,22.60
2023-08-05T15:58:27.469Z,22.72
2023-08-05T16:01:02.811Z,23.14
2023-08-05T16:03:30.974Z,23.31
2023-08-05T16:06:05.087Z,23.11
2023-08-05T16:08:33.224Z,22.85
2023-08-05T16:11:02.218Z,22.63
2023-08-05T16:13:30.194Z,22.20
2023-08-05T16:16:07.084Z,21.82
2023-08-05T16:18:35.102Z,21.91
2023-08-05T16:21:12.271Z,21.71
2023-08-05T16:23:39.954Z,21.58
2023-08-05T16:26:11.745Z,21.72
2023-08-05T16:28:39.471Z,21.98
2023-08-05T16:31:08.054Z,22.58
2023-08-05T16:33:36.269Z,23.10
2023-08-05T16:36:05.341Z,23.59
2023-08-05T16:38:34.519Z,23.44
2023-08-05T16:41:03.238Z,23.17
2023-08-05T16:43:31.675Z,22.81
2023-08-05T16:46:00.469Z,22.26
2023-08-05T16:48:28.389Z,22.04
2023-08-05T16:50:56.076Z,22.03
2023-08-05T16:53:24.170Z,21.88
2023-08-05T16:55:53.916Z,21.92
2023-08-05T16:58:23.586Z,21.71
2023-08-05T17:00:52.024Z,21.60
2023-08-05T17:03:19.837Z,21.41
2023-08-05T17:05:47.685Z,21.27
2023-08-05T17:08:15.492Z,21.17
2023-08-05T17:10:43.236Z,21.17
2023-08-05T17:13:12.581Z,21.14
2023-08-05T17:15:43.699Z,20.97
2023-08-05T17:18:11.699Z,20.93
2023-08-05T17:20:39.359Z,20.72
2023-08-05T17:23:07.565Z,20.12
2023-08-05T17:25:40.569Z,19.77
2023-08-05T17:28:08.774Z,19.36
2023-08-05T17:30:38.120Z,19.05
2023-08-05T17:33:06.478Z,18.98
2023-08-05T17:35:35.733Z,18.77
2023-08-05T17:38:04.486Z,18.28
2023-08-05T17:40:33.046Z,18.03
2023-08-05T17:43:00.764Z,17.83
2023-08-05T17:45:28.741Z,17.58
2023-08-05T17:47:57.775Z,17.38
2023-08-05T17:50:26.231Z,17.33
2023-08-05T17:52:54.578Z,17.20
2023-08-05T17:55:22.598Z,17.05
2023-08-05T17:57:50.261Z,17.02
2023-08-05T18:00:18.577Z,16.62
2023-08-05T18:02:46.373Z,16.70
2023-08-05T18:05:18.812Z,16.40
2023-08-05T18:07:46.589Z,16.19
2023-08-05T18:10:14.483Z,16.03
2023-08-05T18:12:42.155Z,15.91
2023-08-05T18:15:10.762Z,15.96
2023-08-05T18:17:38.437Z,15.82
2023-08-05T18:20:07.319Z,15.77
2023-08-05T18:22:36.918Z,15.75
2023-08-05T18:25:04.959Z,15.85
2023-08-05T18:27:33.202Z,15.93
2023-08-05T18:30:00.894Z,15.88
2023-08-05T18:32:28.620Z,15.88
2023-08-05T18:34:56.782Z,15.82
2023-08-05T18:37:24.455Z,15.74
2023-08-05T18:39:53.728Z,15.76
2023-08-05T18:42:21.402Z,15.80
2023-08-05T18:44:49.194Z,15.70
2023-08-05T18:47:16.869Z,15.70
2023-08-05T18:49:44.670Z,15.74
2023-08-05T18:52:12.362Z,15.77
2023-08-05T18:54:40.103Z,15.81
2023-08-05T18:57:09.216Z,15.75
2023-08-05T18:59:36.911Z,15.74
2023-08-05T19:02:05.105Z,15.77
2023-08-05T19:04:32.811Z,15.64
2023-08-05T19:07:01.682Z,15.56
2023-08-05T19:09:29.467Z,15.51
2023-08-05T19:11:58.154Z,15.56
2023-08-05T19:14:27.828Z,15.55
2023-08-05T19:16:55.534Z,15.60
2023-08-05T19:19:23.300Z,15.55
2023-08-05T19:21:51.257Z,15.51
2023-08-05T19:24:19.366Z,15.47
2023-08-05T19:26:48.033Z,15.47
2023-08-05T19:29:17.094Z,15.49
2023-08-05T19:31:46.149Z,15.54
2023-08-05T19:34:14.295Z,15.52
2023-08-05T19:36:41.981Z,15.49
2023-08-05T19:39:09.974Z,15.39
2023-08-05T19:41:37.848Z,15.44
2023-08-05T19:44:07.936Z,15.44
2023-08-05T19:46:35.677Z,15.35
2023-08-05T19:49:05.230Z,15.37
2023-08-05T19:51:32.955Z,15.35
2023-08-05T19:54:00.890Z,15.25
2023-08-05T19:56:28.541Z,15.27
2023-08-05T19:58:56.445Z,15.23
2023-08-05T20:01:24.342Z,15.24
2023-08-05T20:03:52.039Z,15.24
2023-08-05T20:06:21.150Z,15.17
2023-08-05T20:08:48.811Z,15.13
2023-08-05T20:11:16.763Z,15.11
2023-08-05T20:13:44.445Z,15.10
2023-08-05T20:16:12.562Z,15.14
2023-08-05T20:18:40.262Z,15.09
2023-08-05T20:21:08.067Z,15.05
2023-08-05T20:23:37.498Z,15.02
2023-08-05T20:26:09.444Z,15.00
2023-08-05T20:28:37.167Z,15.02
2023-08-05T20:31:05.113Z,14.93
2023-08-05T20:33:32.826Z,14.92
2023-08-05T20:36:01.150Z,14.91
2023-08-05T20:38:28.944Z,14.94
2023-08-05T20:40:58.263Z,14.96
2023-08-05T20:43:25.916Z,14.90
2023-08-05T20:45:54.688Z,14.88
2023-08-05T20:48:22.581Z,14.86
2023-08-05T20:50:57.149Z,14.89
2023-08-05T20:53:24.957Z,14.85
2023-08-05T20:55:52.846Z,14.81
2023-08-05T20:58:21.863Z,14.87
2023-08-05T21:00:49.530Z,14.86
2023-08-05T21:03:17.215Z,14.86
2023-08-05T21:05:44.924Z,14.87
2023-08-05T21:08:12.878Z,14.97
2023-08-05T21:10:40.596Z,15.07
2023-08-05T21:13:08.501Z,15.08
2023-08-05T21:15:42.824Z,15.10
2023-08-05T21:18:10.736Z,15.10
2023-08-05T21:20:38.476Z,15.01
2023-08-05T21:23:06.447Z,15.02
2023-08-05T21:25:34.261Z,15.02
2023-08-05T21:28:01.938Z,14.99
2023-08-05T21:30:29.594Z,14.98
2023-08-05T21:32:58.872Z,14.97
2023-08-05T21:35:26.583Z,14.91
2023-08-05T21:37:54.544Z,14.93
2023-08-05T21:40:22.223Z,15.00
2023-08-05T21:42:50.314Z,14.96
2023-08-05T21:45:18.335Z,15.02
2023-08-05T21:47:46.255Z,14.99
2023-08-05T21:50:15.319Z,14.91
2023-08-05T21:52:43.070Z,14.86
2023-08-05T21:55:10.899Z,14.81
2023-08-05T21:57:38.753Z,14.87
2023-08-05T22:00:12.923Z,14.83
2023-08-05T22:02:41.187Z,14.76
2023-08-05T22:05:09.108Z,14.75
2023-08-05T22:07:38.377Z,14.73
2023-08-05T22:10:06.826Z,14.70
2023-08-05T22:12:34.801Z,14.68
2023-08-05T22:15:03.444Z,14.65
2023-08-05T22:17:31.190Z,14.69
2023-08-05T22:19:58.936Z,14.72
2023-08-05T22:22:26.888Z,14.85
2023-08-05T22:24:56.074Z,15.01
2023-08-05T22:27:24.221Z,14.95
2023-08-05T22:29:51.889Z,15.11
2023-08-05T22:32:19.826Z,14.74
2023-08-05T22:34:47.624Z,15.19
2023-08-05T22:37:15.339Z,15.27
2023-08-05T22:39:43.401Z,15.25
2023-08-05T22:42:12.430Z,15.20
2023-08-05T22:44:40.411Z,15.20
2023-08-05T22:47:08.104Z,15.21
2023-08-05T22:49:36.054Z,15.27
2023-08-05T22:52:04.043Z,15.33
2023-08-05T22:54:32.447Z,15.33
2023-08-05T22:57:00.104Z,15.26
2023-08-05T22:59:29.390Z,15.24
2023-08-05T23:01:57.029Z,15.18
2023-08-05T23:04:26.493Z,15.28
2023-08-05T23:06:54.188Z,15.42
2023-08-05T23:09:22.118Z,15.36
2023-08-05T23:11:49.753Z,15.42
2023-08-05T23:14:17.706Z,15.30
2023-08-05T23:16:46.677Z,15.43
2023-08-05T23:19:14.677Z,15.40
2023-08-05T23:21:43.813Z,15.30
2023-08-05T23:24:12.430Z,15.43
2023-08-05T23:26:42.197Z,15.43
2023-08-05T23:29:10.161Z,15.34
2023-08-05T23:31:37.826Z,15.47
2023-08-05T23:34:07.079Z,15.44
2023-08-05T23:36:34.778Z,15.57
2023-08-05T23:39:02.644Z,15.51
2023-08-05T23:41:30.612Z,15.50
2023-08-05T23:43:58.520Z,15.58
2023-08-05T23:46:26.722Z,15.50
2023-08-05T23:48:54.720Z,15.47
2023-08-05T23:51:23.761Z,15.38
2023-08-05T23:53:51.909Z,15.31
2023-08-05T23:56:19.587Z,15.25
2023-08-05T23:58:47.329Z,15.21
